< < Back
Terminal Aerodrome Forecast


Current Version              Previous Versions:   1  2  3  4  5  6  7  8  9  

Terminal Aerodrome Forecast

317
FTUS42 KMLB 291735
TAFDAB
TAF
KDAB 291735Z 2918/3018 08008KT P6SM VCSH SCT040 BKN250
     FM300200 00000KT P6SM FEW025 SCT250
     FM301300 27008KT P6SM SCT020=

Latest METAR

901
SAUS80 KWBC 292100
MTRDAB
METAR KDAB 292053Z 08009KT 10SM FEW040 FEW060 FEW100 30/22 A3001 RMK AO2
SLP162 CB DSNT S SW-W T03000217 56016


USA.gov is the U.S. government's official web portal to all federal, state and local government web resources and services.